Time;durP1;ratioP1;P1;durP2;ratioP2;P2;SDS_P1;SDS_P2;PMS_P1;PMS_P2;Temp;Humidity;BMP_temperature;BMP_pressure;BME280_temperature;BME280_humidity;BME280_pressure;Samples;Min_cycle;Max_cycle;Signal;HPM_P1;HPM_P2
2022/08/08 04:01:56;;;;;;;0.32;0.32;;;;;;;24.44;66.69;101331.03;5089906;27;20421;-83
2022/08/08 04:04:21;;;;;;;0.20;0.20;;;;;;;24.74;65.50;101336.00;5069407;28;20028;-83
2022/08/08 04:06:57;;;;;;;0.60;0.38;;;;;;;24.99;63.85;101337.09;5086425;28;20031;-83
2022/08/08 04:09:22;;;;;;;0.30;0.30;;;;;;;25.16;63.44;101349.50;5118233;28;20027;-83
2022/08/08 04:11:48;;;;;;;0.17;0.17;;;;;;;25.25;62.66;101345.09;5089598;28;20050;-83
2022/08/08 04:14:13;;;;;;;0.20;0.20;;;;;;;25.34;62.87;101352.13;5089909;28;20070;-84
2022/08/08 04:16:39;;;;;;;0.30;0.30;;;;;;;25.49;62.62;101352.41;5106523;28;20409;-83
2022/08/08 04:19:04;;;;;;;0.45;0.45;;;;;;;25.45;62.03;101354.53;5088446;28;20038;-83
2022/08/08 04:21:30;;;;;;;0.30;0.30;;;;;;;25.46;61.44;101340.28;5106479;28;20028;-84
2022/08/08 04:23:55;;;;;;;0.52;0.20;;;;;;;25.60;61.33;101348.69;5107887;28;20024;-83
2022/08/08 04:26:21;;;;;;;0.20;0.20;;;;;;;25.58;60.51;101350.66;5089336;28;20032;-83
2022/08/08 04:28:46;;;;;;;0.10;0.10;;;;;;;25.52;61.25;101349.44;5072867;28;20077;-83
2022/08/08 04:31:12;;;;;;;0.43;0.43;;;;;;;25.48;61.08;101352.56;5107776;28;20546;-84
2022/08/08 04:33:38;;;;;;;0.20;0.20;;;;;;;25.49;60.84;101348.94;5089498;28;20115;-92
2022/08/08 04:36:03;;;;;;;0.35;0.35;;;;;;;25.46;60.78;101350.06;5088407;28;20409;-88
2022/08/08 04:38:29;;;;;;;0.32;0.32;;;;;;;25.44;60.86;101355.50;5088996;28;20493;-89
2022/08/08 04:40:54;;;;;;;0.20;0.20;;;;;;;25.49;60.72;101359.53;5076752;28;20055;-91
2022/08/08 04:43:21;;;;;;;0.28;0.28;;;;;;;25.57;60.69;101362.25;5070587;28;20574;-91
2022/08/08 04:45:46;;;;;;;0.63;0.47;;;;;;;25.51;60.88;101362.84;5069156;28;20032;-91
2022/08/08 04:48:12;;;;;;;0.63;0.50;;;;;;;25.59;60.59;101349.69;5085337;28;20021;-89
2022/08/08 04:50:37;;;;;;;0.30;0.30;;;;;;;25.66;60.40;101350.69;5085681;28;20477;-86
2022/08/08 04:53:03;;;;;;;0.20;0.20;;;;;;;25.71;61.21;101375.78;5085832;28;20036;-88
2022/08/08 04:55:28;;;;;;;0.65;0.65;;;;;;;25.64;60.88;101373.88;5119209;28;20027;-89
2022/08/08 04:57:54;;;;;;;0.38;0.38;;;;;;;25.66;61.42;101382.50;5084678;28;20477;-88
2022/08/08 05:00:19;;;;;;;0.20;0.20;;;;;;;25.78;60.87;101378.66;5100980;28;20079;-90
2022/08/08 05:02:45;;;;;;;0.30;0.30;;;;;;;25.79;60.80;101375.00;5083571;28;20032;-89
2022/08/08 05:05:10;;;;;;;0.50;0.50;;;;;;;25.65;60.79;101391.44;5085301;28;20093;-90
2022/08/08 05:07:36;;;;;;;0.40;0.40;;;;;;;25.48;61.59;101373.78;5070687;28;20036;-89
2022/08/08 05:10:02;;;;;;;0.13;0.13;;;;;;;25.42;60.43;101381.34;5074750;28;20039;-90
2022/08/08 05:12:27;;;;;;;0.28;0.28;;;;;;;25.41;61.11;101384.97;5082616;28;20032;-91
2022/08/08 05:14:53;;;;;;;0.15;0.15;;;;;;;25.55;61.04;101380.09;5060041;28;20482;-89
2022/08/08 05:17:18;;;;;;;0.45;0.45;;;;;;;25.76;59.68;101393.03;5093096;28;20715;-92
2022/08/08 05:19:44;;;;;;;0.20;0.20;;;;;;;25.68;59.84;101391.97;5063778;28;20028;-89
2022/08/08 05:22:09;;;;;;;0.20;0.20;;;;;;;25.84;59.44;101385.97;5064720;28;20025;-88
2022/08/08 05:24:35;;;;;;;0.60;0.50;;;;;;;26.00;57.99;101391.38;5063258;28;20035;-89
2022/08/08 05:27:01;;;;;;;0.32;0.32;;;;;;;26.05;59.03;101400.66;5069042;28;20107;-88
2022/08/08 05:29:26;;;;;;;0.20;0.20;;;;;;;25.94;57.73;101405.25;5062857;28;20166;-89
2022/08/08 05:31:52;;;;;;;0.40;0.40;;;;;;;26.04;59.19;101413.09;5067612;28;20028;-89
2022/08/08 05:34:25;;;;;;;0.52;0.28;;;;;;;26.00;60.17;101409.94;5073850;28;20031;-87
2022/08/08 05:36:51;;;;;;;0.45;0.40;;;;;;;25.96;59.77;101410.41;5071644;28;20083;-88
2022/08/08 05:39:18;;;;;;;0.20;0.20;;;;;;;26.11;59.98;101423.91;5060683;28;20090;-93
2022/08/08 05:41:44;;;;;;;0.20;0.20;;;;;;;26.30;59.45;101424.53;5065692;28;20031;-87
2022/08/08 05:44:12;;;;;;;0.28;0.28;;;;;;;26.25;58.72;101410.91;5065176;28;20036;-92
2022/08/08 05:46:39;;;;;;;0.20;0.20;;;;;;;26.22;58.29;101408.56;5081310;28;20048;-83
2022/08/08 05:49:05;;;;;;;0.20;0.20;;;;;;;26.20;59.04;101418.50;5081533;28;20074;-88
2022/08/08 05:51:30;;;;;;;0.30;0.30;;;;;;;26.45;59.14;101437.22;5060457;28;20486;-88
2022/08/08 05:53:56;;;;;;;0.20;0.20;;;;;;;26.55;58.62;101427.34;5057345;28;20031;-86
2022/08/08 05:56:22;;;;;;;0.40;0.40;;;;;;;26.51;57.29;101429.44;5057954;28;20089;-89
2022/08/08 05:58:49;;;;;;;1.45;0.50;;;;;;;26.50;56.51;101440.22;5059633;28;20036;-88
2022/08/08 06:01:15;;;;;;;0.20;0.20;;;;;;;26.64;57.52;101446.75;5076527;28;20072;-86
2022/08/08 06:03:42;;;;;;;0.20;0.20;;;;;;;26.58;57.74;101438.44;5065050;28;20041;-89
2022/08/08 06:06:08;;;;;;;0.22;0.22;;;;;;;26.71;56.99;101451.25;5045378;28;20051;-94
2022/08/08 06:08:48;;;;;;;0.28;0.28;;;;;;;26.75;56.17;101449.97;5066837;28;20481;-87
2022/08/08 06:11:14;;;;;;;0.20;0.20;;;;;;;26.85;56.94;101455.97;5076796;28;20066;-89
2022/08/08 06:13:39;;;;;;;0.30;0.30;;;;;;;26.96;56.15;101454.84;5074884;28;20055;-86
2022/08/08 06:16:05;;;;;;;0.20;0.20;;;;;;;27.07;55.91;101456.38;5072803;28;20059;-87
2022/08/08 06:18:31;;;;;;;0.30;0.30;;;;;;;27.14;54.98;101452.94;5059476;28;20516;-84
2022/08/08 06:20:58;;;;;;;0.30;0.30;;;;;;;27.25;53.75;101461.56;5073783;28;20032;-87
2022/08/08 06:23:26;;;;;;;0.22;0.22;;;;;;;27.29;54.17;101455.75;5063611;28;20032;-88
2022/08/08 06:26:02;;;;;;;0.30;0.30;;;;;;;27.13;53.81;101442.44;5056331;28;20030;-87
2022/08/08 06:28:36;;;;;;;0.20;0.20;;;;;;;27.25;54.12;101472.19;5073688;28;20032;-86
2022/08/08 06:31:03;;;;;;;0.20;0.20;;;;;;;26.94;54.77;101464.78;5066569;28;20039;-91
2022/08/08 06:33:47;;;;;;;0.20;0.20;;;;;;;27.04;55.39;101470.84;5076879;28;20478;-86
2022/08/08 06:36:13;;;;;;;0.40;0.40;;;;;;;27.20;54.21;101479.81;5060463;28;20520;-89
2022/08/08 06:38:39;;;;;;;0.38;0.38;;;;;;;27.09;54.70;101455.22;5058940;28;20024;-85
2022/08/08 06:41:09;;;;;;;0.20;0.20;;;;;;;27.17;54.23;101474.84;5073212;28;20036;-85
2022/08/08 06:43:36;;;;;;;0.20;0.20;;;;;;;27.21;54.23;101481.47;5088819;28;20024;-83
2022/08/08 06:46:05;;;;;;;0.30;0.30;;;;;;;27.03;53.44;101450.56;5058101;28;20182;-85
2022/08/08 06:48:31;;;;;;;0.40;0.40;;;;;;;27.23;53.51;101480.31;5090435;28;20112;-89
2022/08/08 06:50:57;;;;;;;0.28;0.28;;;;;;;27.26;53.74;101481.81;5063124;28;20108;-86
2022/08/08 06:53:22;;;;;;;0.30;0.30;;;;;;;26.95;53.40;101452.34;5064795;28;20035;-86
2022/08/08 06:55:48;;;;;;;0.20;0.20;;;;;;;26.93;53.98;101443.69;5055825;28;20028;-83
2022/08/08 06:58:13;;;;;;;1.00;1.00;;;;;;;27.13;53.78;101490.25;5090725;28;20028;-83
2022/08/08 07:00:39;;;;;;;0.20;0.20;;;;;;;27.24;52.70;101497.09;5062587;28;20056;-84
2022/08/08 07:03:12;;;;;;;0.30;0.30;;;;;;;27.22;53.93;101488.44;5086659;28;20059;-88
2022/08/08 07:05:38;;;;;;;0.28;0.28;;;;;;;27.29;52.91;101489.47;5071071;28;20509;-85
2022/08/08 07:08:07;;;;;;;0.20;0.20;;;;;;;27.51;53.47;101498.63;5077294;28;20067;-87
2022/08/08 07:10:36;;;;;;;0.22;0.22;;;;;;;27.30;54.25;101491.13;5076556;28;20089;-86
2022/08/08 07:13:03;;;;;;;0.32;0.32;;;;;;;27.37;54.62;101492.13;5063208;28;20084;-84
2022/08/08 07:15:59;;;;;;;0.20;0.20;;;;;;;27.44;53.47;101483.34;5073180;28;20043;-85
2022/08/08 07:18:47;;;;;;;0.32;0.32;;;;;;;27.38;53.61;101483.16;5072031;28;20120;-86
2022/08/08 07:21:16;;;;;;;0.80;0.43;;;;;;;27.30;52.71;101477.84;5073034;28;20028;-86
2022/08/08 07:24:08;;;;;;;0.20;0.20;;;;;;;27.36;53.61;101485.16;5057423;28;20028;-87
2022/08/08 07:26:34;;;;;;;0.20;0.20;;;;;;;27.37;53.82;101476.19;5072119;28;20041;-83
2022/08/08 07:29:02;;;;;;;0.30;0.30;;;;;;;27.42;53.57;101476.53;5066742;28;20044;-93
2022/08/08 07:31:27;;;;;;;0.20;0.20;;;;;;;27.53;52.79;101478.03;5046945;28;20033;-84
2022/08/08 07:33:53;;;;;;;0.28;0.28;;;;;;;27.62;52.70;101480.53;5063058;28;20088;-86
2022/08/08 07:36:19;;;;;;;0.30;0.30;;;;;;;27.63;52.33;101460.94;5054936;28;20517;-82
2022/08/08 07:38:46;;;;;;;0.30;0.30;;;;;;;27.79;51.68;101480.56;5072404;28;20164;-87
2022/08/08 07:41:12;;;;;;;0.38;0.38;;;;;;;27.60;51.93;101461.25;5061169;28;20403;-83
2022/08/08 07:43:37;;;;;;;0.22;0.22;;;;;;;27.72;52.00;101475.91;5062316;28;20046;-84
2022/08/08 07:46:03;;;;;;;0.20;0.20;;;;;;;27.70;51.53;101461.13;5059432;28;20105;-86
2022/08/08 07:48:28;;;;;;;0.30;0.30;;;;;;;27.88;52.26;101483.06;5072452;28;20110;-86
2022/08/08 07:50:57;;;;;;;0.25;0.25;;;;;;;27.60;51.21;101445.31;5074593;28;20111;-86
2022/08/08 07:53:35;;;;;;;0.63;0.63;;;;;;;27.71;52.06;101482.22;5057948;28;20528;-86
2022/08/08 07:56:01;;;;;;;0.30;0.30;;;;;;;27.66;53.05;101479.25;5073194;28;20040;-85
2022/08/08 07:58:31;;;;;;;0.20;0.20;;;;;;;27.68;52.29;101469.28;5062604;28;20059;-83
2022/08/08 08:01:04;;;;;;;0.30;0.30;;;;;;;27.82;51.21;101443.81;5045721;28;20406;-84
2022/08/08 08:03:49;;;;;;;0.25;0.25;;;;;;;28.12;51.37;101471.56;5060852;28;20040;-85
2022/08/08 08:06:14;;;;;;;0.20;0.20;;;;;;;28.15;49.34;101455.25;5074605;28;20031;-87
2022/08/08 08:08:45;;;;;;;0.25;0.25;;;;;;;28.42;50.17;101469.19;5056828;28;20032;-86
2022/08/08 08:11:12;;;;;;;0.40;0.40;;;;;;;28.57;49.28;101465.63;5054509;28;20108;-83
2022/08/08 08:13:50;;;;;;;0.63;0.63;;;;;;;28.84;48.49;101467.00;5054348;28;20043;-85
2022/08/08 08:16:44;;;;;;;0.52;0.52;;;;;;;28.86;48.89;101469.50;5073420;28;20103;-83
2022/08/08 08:19:10;;;;;;;0.40;0.40;;;;;;;28.75;49.03;101467.22;5076614;28;20029;-85
2022/08/08 08:21:36;;;;;;;0.50;0.50;;;;;;;29.11;47.91;101475.56;5087808;28;20032;-85
2022/08/08 08:24:02;;;;;;;0.52;0.52;;;;;;;29.00;47.65;101471.44;5079633;28;20035;-83
2022/08/08 08:26:27;;;;;;;0.47;0.40;;;;;;;28.94;46.92;101456.19;5055602;28;20031;-87
2022/08/08 08:28:53;;;;;;;0.45;0.45;;;;;;;29.29;46.86;101481.41;5072733;28;20037;-86
2022/08/08 08:31:18;;;;;;;0.30;0.30;;;;;;;29.46;46.19;101476.00;5075521;28;20063;-88
2022/08/08 08:33:44;;;;;;;0.30;0.30;;;;;;;29.13;46.75;101449.56;5071632;28;20036;-89
2022/08/08 08:36:10;;;;;;;0.20;0.20;;;;;;;29.27;46.49;101454.13;5071428;28;20083;-91
2022/08/08 08:38:36;;;;;;;0.40;0.40;;;;;;;29.57;47.05;101462.25;5089404;28;20039;-88
2022/08/08 08:41:02;;;;;;;0.30;0.30;;;;;;;29.79;45.43;101457.91;5076392;28;20031;-87
2022/08/08 08:43:27;;;;;;;0.47;0.47;;;;;;;29.68;44.81;101454.66;5066763;28;20100;-87
2022/08/08 08:45:54;;;;;;;0.30;0.30;;;;;;;29.59;45.39;101439.75;5084235;28;20482;-88
2022/08/08 08:48:19;;;;;;;0.47;0.47;;;;;;;29.82;44.89;101445.06;5085166;28;20032;-91
2022/08/08 08:50:48;;;;;;;0.40;0.40;;;;;;;30.05;45.03;101433.47;5083545;28;20043;-85
2022/08/08 08:53:14;;;;;;;0.25;0.25;;;;;;;30.15;44.58;101442.06;5077765;28;20028;-87
2022/08/08 08:55:39;;;;;;;0.85;0.68;;;;;;;30.14;43.99;101449.25;5061924;28;20035;-90
2022/08/08 08:58:06;;;;;;;0.30;0.30;;;;;;;30.08;44.31;101427.78;5061657;28;20035;-87
2022/08/08 09:00:32;;;;;;;0.50;0.50;;;;;;;30.39;44.53;101436.47;5059379;28;20059;-86
2022/08/08 09:02:58;;;;;;;0.32;0.32;;;;;;;30.53;43.17;101443.63;5064034;28;20028;-86
2022/08/08 09:05:24;;;;;;;0.20;0.20;;;;;;;30.35;42.75;101421.81;5089224;28;20386;-88
2022/08/08 09:07:52;;;;;;;0.30;0.30;;;;;;;30.42;42.76;101421.91;5089232;28;20031;-87
2022/08/08 09:10:18;;;;;;;0.50;0.50;;;;;;;30.59;42.37;101425.22;5055298;28;20028;-91
2022/08/08 09:12:44;;;;;;;0.30;0.30;;;;;;;30.46;42.77;101434.69;5055218;28;20048;-84
2022/08/08 09:15:10;;;;;;;0.43;0.40;;;;;;;30.38;42.57;101425.94;5071596;28;20103;-83
2022/08/08 09:17:35;;;;;;;0.20;0.20;;;;;;;30.61;42.25;101429.34;5052767;28;20059;-87
2022/08/08 09:20:01;;;;;;;0.30;0.30;;;;;;;30.84;42.60;101429.22;5052113;28;20064;-82
2022/08/08 09:22:27;;;;;;;0.20;0.20;;;;;;;30.86;41.96;101405.81;5063549;28;20028;-90
2022/08/08 09:24:53;;;;;;;0.68;0.45;;;;;;;31.29;41.37;101424.59;5052358;28;20079;-84
2022/08/08 09:27:20;;;;;;;0.40;0.40;;;;;;;31.47;40.36;101421.44;5051802;28;20031;-86
2022/08/08 09:30:04;;;;;;;2.15;0.93;;;;;;;31.40;40.64;101422.22;5052589;28;20036;-89
2022/08/08 09:32:36;;;;;;;0.35;0.30;;;;;;;31.66;38.80;101418.06;5115384;28;20032;-94
2022/08/08 09:35:07;;;;;;;0.57;0.50;;;;;;;31.54;40.43;101408.94;5091292;28;20031;-89
2022/08/08 09:37:43;;;;;;;0.30;0.30;;;;;;;31.61;39.35;101416.00;5064604;28;20036;-89
2022/08/08 09:40:10;;;;;;;0.52;0.50;;;;;;;31.75;39.31;101403.56;5073401;28;20042;-91
2022/08/08 09:42:40;;;;;;;0.50;0.50;;;;;;;31.87;39.86;101410.06;5091406;28;20020;-91
2022/08/08 09:45:07;;;;;;;0.35;0.35;;;;;;;31.79;38.80;101414.72;5066862;28;20025;-92
2022/08/08 09:47:35;;;;;;;0.38;0.38;;;;;;;31.99;38.43;101407.66;5070354;28;20021;-87
2022/08/08 09:50:03;;;;;;;0.60;0.60;;;;;;;31.73;38.68;101407.44;5070352;28;20029;-85
2022/08/08 09:52:30;;;;;;;0.30;0.30;;;;;;;31.58;39.00;101400.34;5076784;28;20024;-84
2022/08/08 09:54:56;;;;;;;0.80;0.80;;;;;;;31.90;38.66;101395.44;5053425;28;20059;-88
2022/08/08 09:57:30;;;;;;;0.30;0.30;;;;;;;32.01;37.61;101394.06;5070292;28;20025;-86
2022/08/08 09:59:55;;;;;;;0.40;0.40;;;;;;;31.94;37.71;101388.66;5050249;28;20450;-85
2022/08/08 10:02:23;;;;;;;0.30;0.30;;;;;;;32.17;37.43;101394.56;5053415;28;20037;-83
2022/08/08 10:04:49;;;;;;;0.38;0.38;;;;;;;31.99;37.77;101394.28;5087152;28;20028;-83
2022/08/08 10:07:15;;;;;;;0.43;0.43;;;;;;;32.21;37.81;101385.13;5069657;28;20024;-90
2022/08/08 10:09:42;;;;;;;0.73;0.73;;;;;;;32.37;36.93;101372.44;5069784;28;20573;-82
2022/08/08 10:12:08;;;;;;;0.35;0.35;;;;;;;32.54;36.69;101379.09;5069477;28;20020;-81
2022/08/08 10:14:34;;;;;;;0.45;0.45;;;;;;;32.83;36.12;101380.63;5055868;28;20453;-82
2022/08/08 10:17:04;;;;;;;0.20;0.20;;;;;;;32.91;35.55;101379.63;5072969;28;20024;-90
2022/08/08 10:19:37;;;;;;;0.55;0.45;;;;;;;32.81;35.62;101356.69;5081187;28;20022;-92
2022/08/08 10:22:04;;;;;;;0.40;0.40;;;;;;;33.06;35.41;101366.88;5053240;28;20039;-90
2022/08/08 10:24:29;;;;;;;0.20;0.20;;;;;;;33.21;35.09;101358.63;5054146;28;20493;-86
2022/08/08 10:27:04;;;;;;;0.22;0.22;;;;;;;33.34;34.62;101364.00;5055979;28;20028;-84
2022/08/08 10:29:54;;;;;;;0.30;0.30;;;;;;;33.49;33.92;101355.75;5072348;28;20032;-90
2022/08/08 10:32:31;;;;;;;0.38;0.38;;;;;;;33.52;34.51;101358.00;5089288;28;20115;-85
2022/08/08 10:35:02;;;;;;;0.43;0.43;;;;;;;33.46;33.64;101351.63;5074222;28;20032;-84
2022/08/08 10:37:32;;;;;;;0.40;0.40;;;;;;;33.50;33.70;101341.28;5071789;28;20028;-84
2022/08/08 10:39:58;;;;;;;0.30;0.30;;;;;;;33.73;33.61;101347.03;5068040;28;20086;-84
2022/08/08 10:42:31;;;;;;;0.40;0.40;;;;;;;33.77;32.33;101337.53;5069233;28;20029;-91
2022/08/08 10:45:15;;;;;;;0.30;0.30;;;;;;;34.09;31.97;101345.72;5053061;28;20115;-88
2022/08/08 10:47:41;;;;;;;0.50;0.50;;;;;;;34.00;31.57;101339.75;5036289;28;20029;-87
2022/08/08 10:50:07;;;;;;;0.30;0.30;;;;;;;34.07;32.09;101334.38;5052101;28;20032;-86
2022/08/08 10:52:34;;;;;;;0.65;0.65;;;;;;;34.22;31.79;101327.69;5054138;28;20111;-86
2022/08/08 10:55:10;;;;;;;0.55;0.55;;;;;;;34.43;31.01;101331.94;5052626;28;20111;-85
2022/08/08 10:57:40;;;;;;;0.52;0.52;;;;;;;34.53;29.82;101330.66;5081361;28;20024;-85
2022/08/08 11:00:07;;;;;;;0.32;0.32;;;;;;;34.48;30.54;101307.94;5072447;28;20048;-86
2022/08/08 11:02:33;;;;;;;0.35;0.35;;;;;;;34.78;30.42;101323.44;5071845;28;21611;-89
2022/08/08 11:05:00;;;;;;;0.30;0.30;;;;;;;34.90;30.59;101316.34;5088752;28;20038;-86
2022/08/08 11:07:37;;;;;;;0.30;0.30;;;;;;;34.79;29.78;101295.53;5084487;28;20082;-85
2022/08/08 11:10:05;;;;;;;0.40;0.40;;;;;;;35.02;29.90;101311.09;5103993;28;20020;-85
2022/08/08 11:12:34;;;;;;;2.17;0.47;;;;;;;35.08;29.75;101292.22;5070344;28;20016;-85
2022/08/08 11:15:00;;;;;;;0.35;0.30;;;;;;;35.19;30.27;101292.53;5068351;28;20020;-86
2022/08/08 11:17:29;;;;;;;0.52;0.40;;;;;;;35.29;29.80;101308.97;5072090;28;20027;-87
2022/08/08 11:19:54;;;;;;;0.30;0.30;;;;;;;35.25;28.78;101288.97;5067408;28;20027;-85
2022/08/08 11:22:24;;;;;;;0.30;0.30;;;;;;;35.31;28.98;101301.53;5070107;28;20035;-86
2022/08/08 11:24:50;;;;;;;0.40;0.40;;;;;;;35.37;29.04;101306.00;5055770;28;20028;-86
2022/08/08 11:27:16;;;;;;;0.50;0.50;;;;;;;35.35;29.64;101308.09;5073933;28;20037;-85
2022/08/08 11:29:42;;;;;;;0.40;0.40;;;;;;;35.28;28.06;101293.88;5050807;28;20024;-86
2022/08/08 11:32:08;;;;;;;0.30;0.30;;;;;;;35.17;28.91;101298.13;5058821;28;20035;-90
2022/08/08 11:34:36;;;;;;;0.63;0.50;;;;;;;35.26;28.95;101285.22;5066206;28;20021;-84
2022/08/08 11:37:01;;;;;;;0.80;0.80;;;;;;;35.38;28.37;101286.16;5068420;28;20090;-85
2022/08/08 11:39:27;;;;;;;0.30;0.30;;;;;;;35.32;29.37;101265.53;5055566;28;20111;-83
2022/08/08 11:41:52;;;;;;;0.30;0.30;;;;;;;35.56;28.96;101288.84;5071999;28;20024;-83
2022/08/08 11:44:18;;;;;;;0.40;0.40;;;;;;;35.73;28.51;101266.75;5033453;28;20076;-86
2022/08/08 11:46:43;;;;;;;0.70;0.70;;;;;;;35.90;28.25;101274.00;5052165;28;20027;-85
2022/08/08 11:49:10;;;;;;;0.50;0.50;;;;;;;36.01;27.49;101274.28;5052417;28;20036;-86
2022/08/08 11:51:36;;;;;;;0.55;0.55;;;;;;;35.95;27.42;101273.31;5052158;28;20696;-86
2022/08/08 11:54:01;;;;;;;0.30;0.30;;;;;;;35.92;27.09;101260.31;5064733;28;20115;-85
2022/08/08 11:56:31;;;;;;;0.60;0.60;;;;;;;35.91;26.45;101247.91;5071320;28;20051;-91
2022/08/08 11:59:04;;;;;;;1.98;0.93;;;;;;;36.07;26.50;101262.59;5071883;28;20534;-85
2022/08/08 12:01:31;;;;;;;0.32;0.32;;;;;;;36.14;26.58;101260.63;5050989;28;20051;-88
2022/08/08 12:03:57;;;;;;;0.50;0.50;;;;;;;36.13;26.54;101245.53;5067769;28;20028;-86
2022/08/08 12:06:23;;;;;;;0.35;0.35;;;;;;;36.15;26.57;101271.16;5081980;28;20093;-86
2022/08/08 12:08:49;;;;;;;0.40;0.40;;;;;;;36.14;26.50;101266.84;5062522;28;20040;-87
2022/08/08 12:11:18;;;;;;;0.45;0.45;;;;;;;36.17;26.48;101257.47;5035302;28;20044;-86
2022/08/08 12:13:43;;;;;;;0.50;0.50;;;;;;;36.10;27.11;101246.81;5070399;28;20086;-87
2022/08/08 12:16:15;;;;;;;0.30;0.30;;;;;;;36.02;26.82;101251.69;5053522;28;20070;-88
2022/08/08 12:18:50;;;;;;;1.30;0.93;;;;;;;35.93;26.98;101251.19;5062570;28;20028;-91
2022/08/08 12:21:23;;;;;;;1.17;0.60;;;;;;;35.95;26.71;101241.00;5080875;28;20032;-84
2022/08/08 12:23:49;;;;;;;0.50;0.50;;;;;;;36.06;26.88;101237.53;5089519;28;20028;-84
2022/08/08 12:26:16;;;;;;;0.70;0.70;;;;;;;36.07;26.83;101244.56;5072040;28;20087;-87
2022/08/08 12:28:51;;;;;;;0.57;0.57;;;;;;;35.98;26.54;101215.47;5068176;28;20099;-91
2022/08/08 12:31:17;;;;;;;0.40;0.40;;;;;;;36.07;26.83;101231.09;5075499;28;20043;-85
2022/08/08 12:33:50;;;;;;;0.47;0.47;;;;;;;36.19;26.43;101233.84;5069601;28;20497;-93
2022/08/08 12:36:16;;;;;;;0.52;0.52;;;;;;;36.23;26.62;101234.19;5087769;28;20028;-91
2022/08/08 12:38:51;;;;;;;0.35;0.35;;;;;;;36.27;27.16;101224.59;5089214;28;20024;-88
2022/08/08 12:41:21;;;;;;;0.40;0.40;;;;;;;36.19;27.30;101220.38;5074884;28;20024;-92
2022/08/08 12:43:48;;;;;;;0.50;0.50;;;;;;;36.20;27.12;101217.44;5074804;28;20035;-83
2022/08/08 12:46:14;;;;;;;0.40;0.40;;;;;;;36.26;26.18;101217.56;5090570;28;20043;-84
2022/08/08 12:48:41;;;;;;;0.35;0.35;;;;;;;36.21;26.77;101210.19;5090887;28;20055;-88
2022/08/08 12:51:16;;;;;;;0.45;0.45;;;;;;;36.25;26.39;101221.31;5092408;28;20111;-85
2022/08/08 12:53:59;;;;;;;0.70;0.70;;;;;;;36.30;26.21;101214.19;5076447;28;20035;-85
2022/08/08 12:56:34;;;;;;;0.32;0.32;;;;;;;36.24;26.40;101208.91;5073024;28;20446;-85
2022/08/08 12:58:59;;;;;;;0.55;0.55;;;;;;;36.08;26.35;101200.41;5082343;28;20028;-89
2022/08/08 13:01:35;;;;;;;0.40;0.40;;;;;;;36.06;26.59;101202.53;5092235;28;20107;-85
2022/08/08 13:04:10;;;;;;;0.45;0.45;;;;;;;35.89;26.50;101201.50;5075348;28;20042;-85
2022/08/08 13:06:35;;;;;;;0.60;0.60;;;;;;;35.69;25.91;101195.56;5092707;28;20043;-91
2022/08/08 13:09:07;;;;;;;0.47;0.47;;;;;;;35.46;26.41;101180.13;5071391;28;20537;-88
2022/08/08 13:11:34;;;;;;;0.47;0.47;;;;;;;35.46;26.69;101172.88;5072117;28;20027;-94
2022/08/08 13:14:02;;;;;;;0.50;0.50;;;;;;;35.52;26.76;101182.75;5159490;22;20061;-88
2022/08/08 13:16:34;;;;;;;0.35;0.35;;;;;;;35.46;26.34;101163.97;5052017;28;20103;-85
2022/08/08 13:19:01;;;;;;;0.30;0.30;;;;;;;35.40;26.68;101160.34;5033086;28;20024;-86
2022/08/08 13:21:26;;;;;;;0.85;0.85;;;;;;;35.48;26.87;101180.72;5017145;28;20077;-88
2022/08/08 13:23:52;;;;;;;0.30;0.30;;;;;;;35.42;26.60;101179.75;5034400;28;20055;-88
2022/08/08 13:26:17;;;;;;;0.50;0.50;;;;;;;35.33;27.37;101170.31;5034760;28;20025;-85
2022/08/08 13:28:43;;;;;;;0.40;0.40;;;;;;;35.27;26.84;101163.16;5049142;28;20049;-90
2022/08/08 13:31:11;;;;;;;0.40;0.40;;;;;;;35.28;26.71;101170.16;5038861;28;20036;-91
2022/08/08 13:33:36;;;;;;;0.60;0.60;;;;;;;35.17;27.12;101166.34;5019355;28;20029;-92
2022/08/08 13:36:02;;;;;;;0.40;0.40;;;;;;;35.12;27.28;101166.22;5038211;28;20036;-92
2022/08/08 13:38:29;;;;;;;0.50;0.50;;;;;;;35.12;27.09;101158.16;5043047;28;20029;-91
2022/08/08 13:40:55;;;;;;;0.30;0.30;;;;;;;34.93;27.37;101153.81;5015912;28;20028;-90
2022/08/08 13:43:20;;;;;;;0.40;0.40;;;;;;;34.73;27.36;101136.00;5017526;28;20026;-90
2022/08/08 13:45:46;;;;;;;0.52;0.52;;;;;;;34.68;27.65;101145.75;5022730;28;20540;-89
2022/08/08 13:48:12;;;;;;;0.30;0.30;;;;;;;34.60;27.10;101137.97;5014897;28;20127;-90
2022/08/08 13:50:44;;;;;;;0.35;0.35;;;;;;;34.72;27.81;101146.97;5031191;28;20032;-84
2022/08/08 13:53:09;;;;;;;0.30;0.30;;;;;;;34.72;27.77;101145.09;5031729;28;20455;-83
2022/08/08 13:55:34;;;;;;;0.25;0.25;;;;;;;34.70;27.79;101140.97;5015955;28;20064;-84
2022/08/08 13:58:00;;;;;;;0.30;0.30;;;;;;;34.72;27.07;101133.53;5014837;28;20037;-86
2022/08/08 14:00:26;;;;;;;0.47;0.47;;;;;;;34.62;26.74;101142.09;5037398;28;20032;-83
2022/08/08 14:02:58;;;;;;;0.40;0.40;;;;;;;34.53;26.77;101127.31;5043686;28;20065;-81
2022/08/08 14:05:28;;;;;;;0.40;0.40;;;;;;;34.48;27.01;101133.31;5033459;28;20035;-91
2022/08/08 14:07:53;;;;;;;0.30;0.30;;;;;;;34.52;27.02;101125.66;5036447;28;20118;-92
2022/08/08 14:10:20;;;;;;;0.52;0.52;;;;;;;34.44;27.03;101109.81;5200464;23;20069;-86
2022/08/08 14:12:45;;;;;;;0.30;0.30;;;;;;;34.36;27.11;101099.31;5051127;28;20021;-84
2022/08/08 14:15:31;;;;;;;0.40;0.40;;;;;;;34.45;27.65;101117.66;5033992;28;20071;-83
2022/08/08 14:18:03;;;;;;;0.43;0.43;;;;;;;34.41;26.76;101121.00;5067036;28;20100;-84
2022/08/08 14:20:37;;;;;;;0.30;0.30;;;;;;;34.36;25.70;101116.25;5050571;28;20029;-92
